sensor_id;sensor_type;location;lat;lon;timestamp;pressure;altitude;pressure_sealevel;temperature;humidity
25420;BME280;13354;48.174;11.566;2023-05-12T00:01:49;95380.69;;;10.55;100.00
25420;BME280;13354;48.174;11.566;2023-05-12T00:04:14;95382.50;;;10.48;100.00
25420;BME280;13354;48.174;11.566;2023-05-12T00:06:39;95375.38;;;10.48;100.00
25420;BME280;13354;48.174;11.566;2023-05-12T00:09:05;95384.13;;;10.49;100.00
25420;BME280;13354;48.174;11.566;2023-05-12T00:11:30;95379.47;;;10.51;100.00
25420;BME280;13354;48.174;11.566;2023-05-12T00:13:55;95382.28;;;10.49;100.00
25420;BME280;13354;48.174;11.566;2023-05-12T00:16:21;95380.25;;;10.45;100.00
25420;BME280;13354;48.174;11.566;2023-05-12T00:18:46;95385.09;;;10.41;100.00
25420;BME280;13354;48.174;11.566;2023-05-12T00:21:11;95378.78;;;10.35;100.00
25420;BME280;13354;48.174;11.566;2023-05-12T00:23:36;95373.06;;;10.32;100.00
25420;BME280;13354;48.174;11.566;2023-05-12T00:26:02;95379.19;;;10.32;100.00
25420;BME280;13354;48.174;11.566;2023-05-12T00:28:27;95376.72;;;10.31;100.00
25420;BME280;13354;48.174;11.566;2023-05-12T00:30:53;95378.75;;;10.29;100.00
25420;BME280;13354;48.174;11.566;2023-05-12T00:33:18;95380.00;;;10.33;100.00
25420;BME280;13354;48.174;11.566;2023-05-12T00:35:43;95378.59;;;10.37;100.00
25420;BME280;13354;48.174;11.566;2023-05-12T00:38:11;95373.25;;;10.30;100.00
25420;BME280;13354;48.174;11.566;2023-05-12T00:40:37;95369.41;;;10.33;100.00
25420;BME280;13354;48.174;11.566;2023-05-12T00:43:02;95369.41;;;10.33;100.00
25420;BME280;13354;48.174;11.566;2023-05-12T00:45:29;95369.19;;;10.34;100.00
25420;BME280;13354;48.174;11.566;2023-05-12T00:47:54;95362.28;;;10.33;100.00
25420;BME280;13354;48.174;11.566;2023-05-12T00:50:20;95366.97;;;10.31;100.00
25420;BME280;13354;48.174;11.566;2023-05-12T00:52:46;95363.09;;;10.34;100.00
25420;BME280;13354;48.174;11.566;2023-05-12T00:55:12;95360.06;;;10.37;100.00
25420;BME280;13354;48.174;11.566;2023-05-12T00:57:37;95361.88;;;10.30;100.00
25420;BME280;13354;48.174;11.566;2023-05-12T01:00:02;95364.75;;;10.35;100.00
25420;BME280;13354;48.174;11.566;2023-05-12T01:02:29;95360.50;;;10.47;100.00
25420;BME280;13354;48.174;11.566;2023-05-12T01:04:54;95362.38;;;10.60;100.00
25420;BME280;13354;48.174;11.566;2023-05-12T01:07:22;95363.78;;;10.56;100.00
25420;BME280;13354;48.174;11.566;2023-05-12T01:09:52;95357.22;;;10.38;100.00
25420;BME280;13354;48.174;11.566;2023-05-12T01:12:17;95365.13;;;10.32;100.00
25420;BME280;13354;48.174;11.566;2023-05-12T01:14:42;95369.19;;;10.28;100.00
25420;BME280;13354;48.174;11.566;2023-05-12T01:17:09;95370.41;;;10.25;100.00
25420;BME280;13354;48.174;11.566;2023-05-12T01:19:55;95368.09;;;10.22;100.00
25420;BME280;13354;48.174;11.566;2023-05-12T01:22:20;95355.91;;;10.21;100.00
25420;BME280;13354;48.174;11.566;2023-05-12T01:27:15;95359.63;;;10.33;100.00
25420;BME280;13354;48.174;11.566;2023-05-12T01:29:41;95356.56;;;10.30;100.00
25420;BME280;13354;48.174;11.566;2023-05-12T01:32:07;95356.78;;;10.28;100.00
25420;BME280;13354;48.174;11.566;2023-05-12T01:34:33;95354.75;;;10.30;100.00
25420;BME280;13354;48.174;11.566;2023-05-12T01:36:58;95349.41;;;10.24;100.00
25420;BME280;13354;48.174;11.566;2023-05-12T01:39:23;95351.00;;;10.18;100.00
25420;BME280;13354;48.174;11.566;2023-05-12T01:41:48;95348.75;;;10.15;100.00
25420;BME280;13354;48.174;11.566;2023-05-12T01:44:14;95361.16;;;10.14;100.00
25420;BME280;13354;48.174;11.566;2023-05-12T01:46:39;95358.09;;;10.11;100.00
25420;BME280;13354;48.174;11.566;2023-05-12T01:49:04;95359.84;;;10.32;100.00
25420;BME280;13354;48.174;11.566;2023-05-12T01:51:29;95359.75;;;10.19;100.00
25420;BME280;13354;48.174;11.566;2023-05-12T01:53:55;95361.59;;;10.18;100.00
25420;BME280;13354;48.174;11.566;2023-05-12T01:56:20;95367.94;;;10.24;100.00
25420;BME280;13354;48.174;11.566;2023-05-12T01:58:45;95352.44;;;10.21;100.00
25420;BME280;13354;48.174;11.566;2023-05-12T02:01:11;95361.06;;;10.29;100.00
25420;BME280;13354;48.174;11.566;2023-05-12T02:03:36;95361.44;;;10.26;100.00
25420;BME280;13354;48.174;11.566;2023-05-12T02:06:01;95360.06;;;10.37;100.00
25420;BME280;13354;48.174;11.566;2023-05-12T02:08:27;95357.84;;;10.40;100.00
25420;BME280;13354;48.174;11.566;2023-05-12T02:11:03;95353.16;;;10.43;100.00
25420;BME280;13354;48.174;11.566;2023-05-12T02:13:28;95352.72;;;10.32;100.00
25420;BME280;13354;48.174;11.566;2023-05-12T02:15:54;95361.28;;;10.41;100.00
25420;BME280;13354;48.174;11.566;2023-05-12T02:18:19;95355.59;;;10.44;100.00
25420;BME280;13354;48.174;11.566;2023-05-12T02:20:45;95350.28;;;10.37;100.00
25420;BME280;13354;48.174;11.566;2023-05-12T02:23:10;95351.50;;;10.28;100.00
25420;BME280;13354;48.174;11.566;2023-05-12T02:25:35;95345.59;;;10.33;100.00
25420;BME280;13354;48.174;11.566;2023-05-12T02:28:00;95348.03;;;10.34;100.00
25420;BME280;13354;48.174;11.566;2023-05-12T02:30:26;95345.84;;;10.45;100.00
25420;BME280;13354;48.174;11.566;2023-05-12T02:32:51;95345.41;;;10.41;100.00
25420;BME280;13354;48.174;11.566;2023-05-12T02:35:16;95344.66;;;10.54;100.00
25420;BME280;13354;48.174;11.566;2023-05-12T02:37:41;95337.91;;;10.45;100.00
25420;BME280;13354;48.174;11.566;2023-05-12T02:40:07;95343.81;;;10.47;100.00
25420;BME280;13354;48.174;11.566;2023-05-12T02:42:32;95340.97;;;10.48;100.00
25420;BME280;13354;48.174;11.566;2023-05-12T02:44:59;95344.47;;;10.62;100.00
25420;BME280;13354;48.174;11.566;2023-05-12T02:47:24;95339.56;;;10.59;100.00
25420;BME280;13354;48.174;11.566;2023-05-12T02:49:50;95347.91;;;10.56;100.00
25420;BME280;13354;48.174;11.566;2023-05-12T02:52:15;95350.75;;;10.54;100.00
25420;BME280;13354;48.174;11.566;2023-05-12T02:54:40;95352.59;;;10.54;100.00
25420;BME280;13354;48.174;11.566;2023-05-12T02:57:05;95354.81;;;10.50;100.00
25420;BME280;13354;48.174;11.566;2023-05-12T02:59:31;95351.53;;;10.48;100.00
25420;BME280;13354;48.174;11.566;2023-05-12T03:01:56;95353.00;;;10.51;100.00
25420;BME280;13354;48.174;11.566;2023-05-12T03:04:21;95352.56;;;10.47;100.00
25420;BME280;13354;48.174;11.566;2023-05-12T03:06:47;95351.13;;;10.45;100.00
25420;BME280;13354;48.174;11.566;2023-05-12T03:09:12;95351.94;;;10.45;100.00
25420;BME280;13354;48.174;11.566;2023-05-12T03:11:37;95356.03;;;10.48;100.00
25420;BME280;13354;48.174;11.566;2023-05-12T03:14:02;95355.00;;;10.49;100.00
25420;BME280;13354;48.174;11.566;2023-05-12T03:16:27;95360.50;;;10.47;100.00
25420;BME280;13354;48.174;11.566;2023-05-12T03:18:53;95358.06;;;10.52;100.00
25420;BME280;13354;48.174;11.566;2023-05-12T03:21:18;95359.94;;;10.58;100.00
25420;BME280;13354;48.174;11.566;2023-05-12T03:23:43;95356.25;;;10.59;100.00
25420;BME280;13354;48.174;11.566;2023-05-12T03:26:08;95360.72;;;10.46;100.00
25420;BME280;13354;48.174;11.566;2023-05-12T03:28:33;95364.19;;;10.46;100.00
25420;BME280;13354;48.174;11.566;2023-05-12T03:30:59;95362.09;;;10.42;100.00
25420;BME280;13354;48.174;11.566;2023-05-12T03:33:24;95364.19;;;10.46;100.00
25420;BME280;13354;48.174;11.566;2023-05-12T03:35:49;95359.44;;;10.42;100.00
25420;BME280;13354;48.174;11.566;2023-05-12T03:38:14;95361.25;;;10.34;100.00
25420;BME280;13354;48.174;11.566;2023-05-12T03:40:40;95364.13;;;10.33;100.00
25420;BME280;13354;48.174;11.566;2023-05-12T03:43:05;95363.69;;;10.29;100.00
25420;BME280;13354;48.174;11.566;2023-05-12T03:45:30;95362.59;;;10.17;100.00
25420;BME280;13354;48.174;11.566;2023-05-12T03:47:55;95359.81;;;10.25;100.00
25420;BME280;13354;48.174;11.566;2023-05-12T03:50:21;95355.16;;;10.34;100.00
25420;BME280;13354;48.174;11.566;2023-05-12T03:52:46;95354.75;;;10.30;100.00
25420;BME280;13354;48.174;11.566;2023-05-12T03:55:11;95349.03;;;10.27;100.00
25420;BME280;13354;48.174;11.566;2023-05-12T03:57:36;95353.31;;;10.28;100.00
25420;BME280;13354;48.174;11.566;2023-05-12T04:00:02;95358.78;;;10.26;100.00
25420;BME280;13354;48.174;11.566;2023-05-12T04:02:28;95361.06;;;10.29;100.00
25420;BME280;13354;48.174;11.566;2023-05-12T04:04:53;95350.84;;;10.26;100.00
25420;BME280;13354;48.174;11.566;2023-05-12T04:07:19;95358.63;;;10.34;100.00
25420;BME280;13354;48.174;11.566;2023-05-12T04:09:44;95358.78;;;10.26;100.00
25420;BME280;13354;48.174;11.566;2023-05-12T04:12:09;95357.97;;;10.26;100.00
25420;BME280;13354;48.174;11.566;2023-05-12T04:14:35;95359.56;;;10.20;100.00
25420;BME280;13354;48.174;11.566;2023-05-12T04:17:00;95356.94;;;10.20;100.00
25420;BME280;13354;48.174;11.566;2023-05-12T04:19:25;95357.53;;;10.22;100.00
25420;BME280;13354;48.174;11.566;2023-05-12T04:21:50;95356.59;;;10.36;100.00
25420;BME280;13354;48.174;11.566;2023-05-12T04:24:15;95362.94;;;10.49;100.00
25420;BME280;13354;48.174;11.566;2023-05-12T04:26:41;95359.47;;;10.35;100.00
25420;BME280;13354;48.174;11.566;2023-05-12T04:29:06;95362.66;;;10.30;100.00
25420;BME280;13354;48.174;11.566;2023-05-12T04:31:31;95369.22;;;10.41;100.00
25420;BME280;13354;48.174;11.566;2023-05-12T04:33:56;95364.78;;;10.48;100.00
25420;BME280;13354;48.174;11.566;2023-05-12T04:36:22;95371.72;;;10.56;100.00
25420;BME280;13354;48.174;11.566;2023-05-12T04:38:47;95372.09;;;10.39;100.00
25420;BME280;13354;48.174;11.566;2023-05-12T04:41:12;95379.38;;;10.31;100.00
25420;BME280;13354;48.174;11.566;2023-05-12T04:43:37;95378.19;;;10.40;100.00
25420;BME280;13354;48.174;11.566;2023-05-12T04:46:03;95376.81;;;10.64;100.00
25420;BME280;13354;48.174;11.566;2023-05-12T04:48:28;95384.69;;;10.37;100.00
25420;BME280;13354;48.174;11.566;2023-05-12T04:50:53;95378.81;;;10.42;100.00
25420;BME280;13354;48.174;11.566;2023-05-12T04:53:18;95385.50;;;10.38;100.00
25420;BME280;13354;48.174;11.566;2023-05-12T04:55:44;95379.41;;;10.44;100.00
25420;BME280;13354;48.174;11.566;2023-05-12T04:58:13;95381.66;;;10.40;100.00
25420;BME280;13354;48.174;11.566;2023-05-12T05:00:38;95381.03;;;10.38;100.00
25420;BME280;13354;48.174;11.566;2023-05-12T05:03:04;95381.84;;;10.39;100.00
25420;BME280;13354;48.174;11.566;2023-05-12T05:05:29;95387.41;;;10.51;100.00
25420;BME280;13354;48.174;11.566;2023-05-12T05:07:54;95389.38;;;10.35;100.00
25420;BME280;13354;48.174;11.566;2023-05-12T05:10:20;95389.41;;;10.49;100.00
25420;BME280;13354;48.174;11.566;2023-05-12T05:12:45;95396.19;;;10.58;100.00
25420;BME280;13354;48.174;11.566;2023-05-12T05:15:11;95396.13;;;10.45;100.00
25420;BME280;13354;48.174;11.566;2023-05-12T05:17:36;95386.97;;;10.47;100.00
25420;BME280;13354;48.174;11.566;2023-05-12T05:20:01;95392.66;;;10.44;100.00
25420;BME280;13354;48.174;11.566;2023-05-12T05:22:26;95399.41;;;10.47;100.00
25420;BME280;13354;48.174;11.566;2023-05-12T05:24:52;95390.69;;;10.66;100.00
25420;BME280;13354;48.174;11.566;2023-05-12T05:27:17;95397.63;;;10.67;100.00
25420;BME280;13354;48.174;11.566;2023-05-12T05:29:42;95393.41;;;10.79;100.00
25420;BME280;13354;48.174;11.566;2023-05-12T05:32:08;95397.44;;;10.82;100.00
25420;BME280;13354;48.174;11.566;2023-05-12T05:34:33;95403.22;;;10.99;100.00
25420;BME280;13354;48.174;11.566;2023-05-12T05:36:58;95400.75;;;11.04;100.00
25420;BME280;13354;48.174;11.566;2023-05-12T05:39:23;95400.16;;;11.02;100.00
25420;BME280;13354;48.174;11.566;2023-05-12T05:41:49;95402.19;;;11.00;100.00
25420;BME280;13354;48.174;11.566;2023-05-12T05:44:14;95400.19;;;11.08;100.00
25420;BME280;13354;48.174;11.566;2023-05-12T05:46:39;95399.34;;;11.08;100.00
25420;BME280;13354;48.174;11.566;2023-05-12T05:49:05;95397.53;;;11.08;100.00
25420;BME280;13354;48.174;11.566;2023-05-12T05:51:30;95399.56;;;11.20;100.00
25420;BME280;13354;48.174;11.566;2023-05-12T05:53:55;95404.22;;;11.11;100.00
25420;BME280;13354;48.174;11.566;2023-05-12T05:56:20;95406.88;;;11.11;100.00
25420;BME280;13354;48.174;11.566;2023-05-12T05:58:47;95404.84;;;11.06;100.00
25420;BME280;13354;48.174;11.566;2023-05-12T06:01:12;95407.50;;;11.06;100.00
25420;BME280;13354;48.174;11.566;2023-05-12T06:03:37;95399.34;;;11.08;100.00
25420;BME280;13354;48.174;11.566;2023-05-12T06:06:02;95396.50;;;11.16;100.00
25420;BME280;13354;48.174;11.566;2023-05-12T06:08:28;95399.97;;;11.30;100.00
25420;BME280;13354;48.174;11.566;2023-05-12T06:10:54;95396.94;;;11.40;100.00
25420;BME280;13354;48.174;11.566;2023-05-12T06:13:19;95402.00;;;11.48;100.00
25420;BME280;13354;48.174;11.566;2023-05-12T06:15:44;95405.09;;;11.58;100.00
25420;BME280;13354;48.174;11.566;2023-05-12T06:18:09;95398.75;;;11.59;100.00
25420;BME280;13354;48.174;11.566;2023-05-12T06:20:35;95401.41;;;11.72;100.00
25420;BME280;13354;48.174;11.566;2023-05-12T06:23:00;95402.41;;;11.78;100.00
25420;BME280;13354;48.174;11.566;2023-05-12T06:25:25;95409.75;;;11.69;100.00
25420;BME280;13354;48.174;11.566;2023-05-12T06:27:51;95407.75;;;11.71;98.78
25420;BME280;13354;48.174;11.566;2023-05-12T06:30:19;95420.16;;;11.77;98.39
25420;BME280;13354;48.174;11.566;2023-05-12T06:32:44;95419.75;;;11.74;98.55
25420;BME280;13354;48.174;11.566;2023-05-12T06:35:10;95416.69;;;11.70;98.46
25420;BME280;13354;48.174;11.566;2023-05-12T06:37:35;95418.75;;;11.75;98.25
25420;BME280;13354;48.174;11.566;2023-05-12T06:40:01;95416.69;;;11.70;97.28
25420;BME280;13354;48.174;11.566;2023-05-12T06:42:26;95423.66;;;11.71;96.95
25420;BME280;13354;48.174;11.566;2023-05-12T06:44:51;95419.34;;;11.70;97.55
25420;BME280;13354;48.174;11.566;2023-05-12T06:47:16;95425.06;;;11.74;95.59
25420;BME280;13354;48.174;11.566;2023-05-12T06:49:41;95423.22;;;11.81;94.79
25420;BME280;13354;48.174;11.566;2023-05-12T06:52:07;95428.94;;;11.98;94.13
25420;BME280;13354;48.174;11.566;2023-05-12T06:54:32;95429.97;;;11.97;94.13
25420;BME280;13354;48.174;11.566;2023-05-12T06:56:57;95425.03;;;12.07;94.10
25420;BME280;13354;48.174;11.566;2023-05-12T06:59:23;95422.59;;;12.05;94.35
25420;BME280;13354;48.174;11.566;2023-05-12T07:01:48;95425.44;;;12.11;95.51
25420;BME280;13354;48.174;11.566;2023-05-12T07:04:13;95423.19;;;12.21;96.94
25420;BME280;13354;48.174;11.566;2023-05-12T07:06:39;95431.16;;;12.21;96.04
25420;BME280;13354;48.174;11.566;2023-05-12T07:09:04;95428.25;;;12.29;95.96
25420;BME280;13354;48.174;11.566;2023-05-12T07:11:29;95427.25;;;12.30;95.43
25420;BME280;13354;48.174;11.566;2023-05-12T07:13:55;95429.28;;;12.35;94.13
25420;BME280;13354;48.174;11.566;2023-05-12T07:16:20;95424.56;;;12.37;94.33
25420;BME280;13354;48.174;11.566;2023-05-12T07:18:45;95427.22;;;12.37;93.32
25420;BME280;13354;48.174;11.566;2023-05-12T07:21:10;95424.13;;;12.46;92.98
25420;BME280;13354;48.174;11.566;2023-05-12T07:23:37;95419.72;;;12.27;91.87
25420;BME280;13354;48.174;11.566;2023-05-12T07:26:04;95429.53;;;12.20;91.84
25420;BME280;13354;48.174;11.566;2023-05-12T07:28:30;95425.44;;;12.24;92.38
25420;BME280;13354;48.174;11.566;2023-05-12T07:30:56;95421.97;;;12.10;92.58
25420;BME280;13354;48.174;11.566;2023-05-12T07:33:22;95423.59;;;12.11;93.78
25420;BME280;13354;48.174;11.566;2023-05-12T07:35:47;95421.34;;;12.15;93.54
25420;BME280;13354;48.174;11.566;2023-05-12T07:38:12;95425.84;;;12.14;90.88
25420;BME280;13354;48.174;11.566;2023-05-12T07:40:37;95425.84;;;12.14;89.95
25420;BME280;13354;48.174;11.566;2023-05-12T07:43:03;95423.34;;;12.26;89.26
25420;BME280;13354;48.174;11.566;2023-05-12T07:45:28;95426.00;;;12.39;88.51
25420;BME280;13354;48.174;11.566;2023-05-12T07:47:53;95430.25;;;12.40;88.64
25420;BME280;13354;48.174;11.566;2023-05-12T07:50:18;95429.88;;;12.37;87.46
25420;BME280;13354;48.174;11.566;2023-05-12T07:52:45;95423.50;;;12.44;87.87
25420;BME280;13354;48.174;11.566;2023-05-12T07:55:10;95430.47;;;12.52;88.03
25420;BME280;13354;48.174;11.566;2023-05-12T07:57:35;95425.56;;;12.49;86.70
25420;BME280;13354;48.174;11.566;2023-05-12T08:00:01;95430.47;;;12.52;86.52
25420;BME280;13354;48.174;11.566;2023-05-12T08:02:26;95429.25;;;12.41;85.52
25420;BME280;13354;48.174;11.566;2023-05-12T08:04:51;95424.16;;;12.33;86.75
25420;BME280;13354;48.174;11.566;2023-05-12T08:07:16;95434.78;;;12.33;87.01
25420;BME280;13354;48.174;11.566;2023-05-12T08:09:41;95424.75;;;12.42;86.41
25420;BME280;13354;48.174;11.566;2023-05-12T08:12:07;95428.41;;;12.41;87.90
25420;BME280;13354;48.174;11.566;2023-05-12T08:14:32;95426.16;;;12.44;88.84
25420;BME280;13354;48.174;11.566;2023-05-12T08:16:57;95433.38;;;12.37;88.82
25420;BME280;13354;48.174;11.566;2023-05-12T08:19:22;95429.88;;;12.37;90.29
25420;BME280;13354;48.174;11.566;2023-05-12T08:21:47;95427.03;;;12.25;90.49
25420;BME280;13354;48.174;11.566;2023-05-12T08:24:13;95422.94;;;12.29;90.75
25420;BME280;13354;48.174;11.566;2023-05-12T08:26:38;95437.63;;;12.38;89.10
25420;BME280;13354;48.174;11.566;2023-05-12T08:29:03;95426.78;;;12.46;87.49
25420;BME280;13354;48.174;11.566;2023-05-12T08:31:30;95432.28;;;12.51;86.81
25420;BME280;13354;48.174;11.566;2023-05-12T08:33:55;95428.16;;;12.62;87.79
25420;BME280;13354;48.174;11.566;2023-05-12T08:36:21;95424.25;;;13.03;87.17
25420;BME280;13354;48.174;11.566;2023-05-12T08:38:46;95424.63;;;13.51;86.99
25420;BME280;13354;48.174;11.566;2023-05-12T08:41:18;95429.28;;;13.81;84.14
25420;BME280;13354;48.174;11.566;2023-05-12T08:43:49;95422.66;;;13.65;80.23
25420;BME280;13354;48.174;11.566;2023-05-12T08:46:14;95424.59;;;14.20;78.60
25420;BME280;13354;48.174;11.566;2023-05-12T08:48:40;95416.94;;;14.48;78.08
25420;BME280;13354;48.174;11.566;2023-05-12T08:51:06;95423.16;;;14.79;75.42
25420;BME280;13354;48.174;11.566;2023-05-12T08:53:34;95417.97;;;15.14;71.38
25420;BME280;13354;48.174;11.566;2023-05-12T08:56:00;95426.47;;;15.23;69.28
25420;BME280;13354;48.174;11.566;2023-05-12T08:58:27;95427.31;;;15.05;71.13
25420;BME280;13354;48.174;11.566;2023-05-12T09:00:52;95430.28;;;14.67;73.61
25420;BME280;13354;48.174;11.566;2023-05-12T09:03:17;95432.63;;;14.75;73.91
25420;BME280;13354;48.174;11.566;2023-05-12T09:05:44;95429.47;;;14.66;72.86
25420;BME280;13354;48.174;11.566;2023-05-12T09:08:09;95435.16;;;14.52;72.13
25420;BME280;13354;48.174;11.566;2023-05-12T09:10:35;95436.06;;;14.39;73.84
25420;BME280;13354;48.174;11.566;2023-05-12T09:13:01;95435.13;;;14.33;73.35
25420;BME280;13354;48.174;11.566;2023-05-12T09:15:29;95438.47;;;14.29;74.92
25420;BME280;13354;48.174;11.566;2023-05-12T09:17:57;95437.34;;;14.18;73.81
25420;BME280;13354;48.174;11.566;2023-05-12T09:20:24;95436.13;;;14.14;72.81
25420;BME280;13354;48.174;11.566;2023-05-12T09:22:50;95431.47;;;14.09;74.43
25420;BME280;13354;48.174;11.566;2023-05-12T09:25:18;95435.59;;;14.05;73.62
25420;BME280;13354;48.174;11.566;2023-05-12T09:27:48;95437.41;;;14.30;76.54
25420;BME280;13354;48.174;11.566;2023-05-12T09:30:13;95432.53;;;14.45;74.01
25420;BME280;13354;48.174;11.566;2023-05-12T09:32:39;95434.94;;;14.53;73.31
25420;BME280;13354;48.174;11.566;2023-05-12T09:35:05;95435.31;;;14.57;72.28
25420;BME280;13354;48.174;11.566;2023-05-12T09:37:31;95428.78;;;14.71;72.51
25420;BME280;13354;48.174;11.566;2023-05-12T09:40:02;95434.34;;;14.69;74.28
25420;BME280;13354;48.174;11.566;2023-05-12T09:42:29;95438.56;;;14.59;71.67
25420;BME280;13354;48.174;11.566;2023-05-12T09:45:01;95435.97;;;14.52;71.54
25420;BME280;13354;48.174;11.566;2023-05-12T09:47:27;95438.91;;;14.44;71.88
25420;BME280;13354;48.174;11.566;2023-05-12T09:49:57;95431.84;;;14.56;71.40
25420;BME280;13354;48.174;11.566;2023-05-12T09:52:23;95434.56;;;14.68;72.19
25420;BME280;13354;48.174;11.566;2023-05-12T09:54:48;95433.00;;;14.79;70.52
25420;BME280;13354;48.174;11.566;2023-05-12T09:57:14;95432.81;;;14.62;69.65
25420;BME280;13354;48.174;11.566;2023-05-12T09:59:40;95432.72;;;14.50;70.01
25420;BME280;13354;48.174;11.566;2023-05-12T10:02:08;95437.00;;;14.33;69.70
25420;BME280;13354;48.174;11.566;2023-05-12T10:04:38;95432.03;;;14.18;69.60
25420;BME280;13354;48.174;11.566;2023-05-12T10:07:10;95426.81;;;14.05;69.98
25420;BME280;13354;48.174;11.566;2023-05-12T10:09:36;95426.81;;;14.05;71.06
25420;BME280;13354;48.174;11.566;2023-05-12T10:12:03;95430.63;;;13.90;71.82
25420;BME280;13354;48.174;11.566;2023-05-12T10:14:29;95432.34;;;13.85;71.65
25420;BME280;13354;48.174;11.566;2023-05-12T10:16:55;95433.94;;;13.86;72.17
25420;BME280;13354;48.174;11.566;2023-05-12T10:19:21;95434.66;;;13.74;74.33
25420;BME280;13354;48.174;11.566;2023-05-12T10:21:49;95438.94;;;13.75;73.00
25420;BME280;13354;48.174;11.566;2023-05-12T10:24:14;95439.59;;;13.71;73.57
25420;BME280;13354;48.174;11.566;2023-05-12T10:26:42;95443.72;;;13.67;73.26
25420;BME280;13354;48.174;11.566;2023-05-12T10:29:08;95441.66;;;13.69;73.56
25420;BME280;13354;48.174;11.566;2023-05-12T10:31:34;95443.78;;;13.60;74.40
25420;BME280;13354;48.174;11.566;2023-05-12T10:34:01;95441.53;;;13.57;74.70
25420;BME280;13354;48.174;11.566;2023-05-12T10:36:26;95448.44;;;13.65;74.29
25420;BME280;13354;48.174;11.566;2023-05-12T10:38:51;95437.59;;;13.66;74.90
25420;BME280;13354;48.174;11.566;2023-05-12T10:41:27;95441.34;;;13.59;74.58
25420;BME280;13354;48.174;11.566;2023-05-12T10:43:53;95437.69;;;13.53;75.12
25420;BME280;13354;48.174;11.566;2023-05-12T10:46:18;95441.78;;;13.56;75.46
25420;BME280;13354;48.174;11.566;2023-05-12T10:51:19;95443.38;;;13.57;75.30
25420;BME280;13354;48.174;11.566;2023-05-12T10:53:49;95444.63;;;13.54;74.58
25420;BME280;13354;48.174;11.566;2023-05-12T10:56:14;95443.53;;;13.62;74.04
25420;BME280;13354;48.174;11.566;2023-05-12T11:01:29;95456.47;;;13.58;74.97
25420;BME280;13354;48.174;11.566;2023-05-12T11:03:56;95451.31;;;13.63;77.19
25420;BME280;13354;48.174;11.566;2023-05-12T11:06:21;95448.16;;;13.73;78.46
25420;BME280;13354;48.174;11.566;2023-05-12T11:08:48;95447.44;;;13.84;76.58
25420;BME280;13354;48.174;11.566;2023-05-12T11:11:16;95455.44;;;13.84;76.05
25420;BME280;13354;48.174;11.566;2023-05-12T11:13:42;95451.53;;;13.87;76.80
25420;BME280;13354;48.174;11.566;2023-05-12T11:16:10;95448.22;;;13.91;76.10
25420;BME280;13354;48.174;11.566;2023-05-12T11:18:35;95451.53;;;13.87;75.57
25420;BME280;13354;48.174;11.566;2023-05-12T11:21:07;95466.06;;;13.84;73.72
25420;BME280;13354;48.174;11.566;2023-05-12T11:23:32;95461.53;;;13.91;72.43
25420;BME280;13354;48.174;11.566;2023-05-12T11:25:58;95454.63;;;13.84;72.26
25420;BME280;13354;48.174;11.566;2023-05-12T11:28:23;95453.88;;;13.76;72.19
25420;BME280;13354;48.174;11.566;2023-05-12T11:30:51;95455.38;;;13.66;73.87
25420;BME280;13354;48.174;11.566;2023-05-12T11:33:20;95457.84;;;13.67;74.74
25420;BME280;13354;48.174;11.566;2023-05-12T11:35:46;95460.88;;;13.71;74.93
25420;BME280;13354;48.174;11.566;2023-05-12T11:38:15;95463.69;;;13.76;74.78
25420;BME280;13354;48.174;11.566;2023-05-12T11:40:41;95460.69;;;13.66;73.97
25420;BME280;13354;48.174;11.566;2023-05-12T11:43:10;95465.09;;;13.53;73.53
25420;BME280;13354;48.174;11.566;2023-05-12T11:45:35;95461.56;;;13.60;73.68
25420;BME280;13354;48.174;11.566;2023-05-12T11:48:04;95458.13;;;13.59;74.00
25420;BME280;13354;48.174;11.566;2023-05-12T11:50:29;95464.72;;;13.50;75.19
25420;BME280;13354;48.174;11.566;2023-05-12T11:52:55;95455.25;;;13.54;76.41
25420;BME280;13354;48.174;11.566;2023-05-12T11:55:22;95463.19;;;13.61;76.08
25420;BME280;13354;48.174;11.566;2023-05-12T11:57:54;95461.78;;;13.83;76.37
25420;BME280;13354;48.174;11.566;2023-05-12T12:00:25;95464.84;;;13.87;76.36
25420;BME280;13354;48.174;11.566;2023-05-12T12:02:50;95462.34;;;13.92;75.82
25420;BME280;13354;48.174;11.566;2023-05-12T12:05:16;95468.75;;;13.84;75.88
25420;BME280;13354;48.174;11.566;2023-05-12T12:07:42;95471.16;;;13.92;74.39
25420;BME280;13354;48.174;11.566;2023-05-12T12:10:13;95467.31;;;13.88;75.19
25420;BME280;13354;48.174;11.566;2023-05-12T12:12:39;95466.53;;;13.81;73.99
25420;BME280;13354;48.174;11.566;2023-05-12T12:15:04;95476.81;;;13.77;71.45
25420;BME280;13354;48.174;11.566;2023-05-12T12:17:30;95471.53;;;13.71;71.99
25420;BME280;13354;48.174;11.566;2023-05-12T12:19:55;95469.63;;;13.78;72.97
25420;BME280;13354;48.174;11.566;2023-05-12T12:22:21;95471.63;;;13.83;73.05
25420;BME280;13354;48.174;11.566;2023-05-12T12:24:46;95465.06;;;13.85;72.65
25420;BME280;13354;48.174;11.566;2023-05-12T12:27:11;95473.53;;;13.75;72.52
25420;BME280;13354;48.174;11.566;2023-05-12T12:29:36;95473.69;;;13.81;73.08
25420;BME280;13354;48.174;11.566;2023-05-12T12:32:02;95475.66;;;13.67;74.05
25420;BME280;13354;48.174;11.566;2023-05-12T12:34:27;95476.13;;;13.57;73.64
25420;BME280;13354;48.174;11.566;2023-05-12T12:36:52;95476.59;;;13.47;72.67
25420;BME280;13354;48.174;11.566;2023-05-12T12:39:17;95474.19;;;13.39;73.26
25420;BME280;13354;48.174;11.566;2023-05-12T12:41:42;95472.13;;;13.41;73.75
25420;BME280;13354;48.174;11.566;2023-05-12T12:44:08;95478.25;;;13.42;74.40
25420;BME280;13354;48.174;11.566;2023-05-12T12:46:33;95471.75;;;13.38;74.46